PWSweather.com
Personal Weather Stations
Station Observations
METEOTORRE
Torrevecchia TeatinaIT

Torrevecchia TeatinaIT

Lat: 42.394, Lon: 14.215

Elevation: 688

Station Type: Davis VP2

Latest ConditionsUpdated 9:35:07 AM GMT+01:01 Friday, Aug 18, 2017
Currently Today's Max Today's Min Today's Average
Temperature 83.8°F28.8°C 83.8°F28.8°C 73.8°F23.2°C 77.0°F25.0°C
Dew Point 59.5°F15.3°C 66.8°F19.3°C 57.4°F14.1°C 61.0°F16.1°C
Winds Calm Calm 7.0 mph WSW11.3 kmh WSW - 2.8 mph 4.5 kmh
Wind Gusts 8.0 mph12.9 kmh 9.0 mph14.5 kmh - -
Humidity 44% 75% 44% 59%
Pressure 30.03 in1016.9 mb 30.03 in1016.9 mb 29.99 in1015.6 mb -
Hour Temp Dew Point Humidity Winds Wind Gusts Pressure Precip Precip Rate Daily Precip Total
09:35 AM 83.8°F28.8°C 59.5°F15.3°C 44% Calm Calm 8.0 mph12.9 kmh 30.03 in1016.9 mb 0.00 in0.0 mm 0.00 in0.0 mm 0.00 in0.0 mm
09:30 AM 83.4°F28.6°C 59.1°F15.1°C 44% 3.0 mph W4.8 kmh W 9.0 mph14.5 kmh 30.03 in1016.9 mb 0.00 in0.0 mm 0.00 in0.0 mm 0.00 in0.0 mm
09:25 AM 83.1°F28.4°C 59.5°F15.3°C 45% 4.0 mph NW6.4 kmh NW 8.0 mph12.9 kmh 30.03 in1016.9 mb 0.00 in0.0 mm 0.00 in0.0 mm 0.00 in0.0 mm
09:20 AM 82.8°F28.2°C 59.2°F15.1°C 45% 1.0 mph NW1.6 kmh NW 7.0 mph11.3 kmh 30.03 in1016.9 mb 0.00 in0.0 mm 0.00 in0.0 mm 0.00 in0.0 mm
09:15 AM 82.7°F28.2°C 59.1°F15.1°C 45% Calm Calm 7.0 mph11.3 kmh 30.03 in1016.9 mb 0.00 in0.0 mm 0.00 in0.0 mm 0.00 in0.0 mm
09:10 AM 82.7°F28.2°C 59.1°F15.1°C 45% 1.0 mph NNW1.6 kmh NNW 8.0 mph12.9 kmh 30.03 in1016.9 mb 0.00 in0.0 mm 0.00 in0.0 mm 0.00 in0.0 mm
09:05 AM 82.6°F28.1°C 59.6°F15.3°C 46% 5.0 mph N8.0 kmh N 7.0 mph11.3 kmh 30.03 in1016.9 mb 0.00 in0.0 mm 0.00 in0.0 mm 0.00 in0.0 mm
09:00 AM 82.2°F27.9°C 58.7°F14.8°C 45% 2.0 mph NW3.2 kmh NW 8.0 mph12.9 kmh 30.03 in1016.9 mb 0.00 in0.0 mm 0.00 in0.0 mm 0.00 in0.0 mm
08:55 AM 82.2°F27.9°C 59.3°F15.2°C 46% 5.0 mph N8.0 kmh N 6.0 mph9.7 kmh 30.03 in1016.9 mb 0.00 in0.0 mm 0.00 in0.0 mm 0.00 in0.0 mm
08:50 AM 82.2°F27.9°C 58.7°F14.8°C 45% Calm Calm 7.0 mph11.3 kmh 30.03 in1016.9 mb 0.00 in0.0 mm 0.00 in0.0 mm 0.00 in0.0 mm
08:45 AM 81.9°F27.7°C 59.6°F15.3°C 47% 3.0 mph W4.8 kmh W 7.0 mph11.3 kmh 30.03 in1016.9 mb 0.00 in0.0 mm 0.00 in0.0 mm 0.00 in0.0 mm
08:40 AM 81.7°F27.6°C 59.4°F15.2°C 47% 7.0 mph WNW11.3 kmh WNW 7.0 mph11.3 kmh 30.03 in1016.9 mb 0.00 in0.0 mm 0.00 in0.0 mm 0.00 in0.0 mm
08:35 AM 81.5°F27.5°C 59.2°F15.1°C 47% 1.0 mph NW1.6 kmh NW 6.0 mph9.7 kmh 30.03 in1016.9 mb 0.00 in0.0 mm 0.00 in0.0 mm 0.00 in0.0 mm
08:30 AM 81.3°F27.4°C 59.7°F15.4°C 48% Calm Calm 3.0 mph4.8 kmh 30.03 in1016.9 mb 0.00 in0.0 mm 0.00 in0.0 mm 0.00 in0.0 mm
08:25 AM 81.1°F27.3°C 60.1°F15.6°C 49% 1.0 mph NNW1.6 kmh NNW 2.0 mph3.2 kmh 30.03 in1016.9 mb 0.00 in0.0 mm 0.00 in0.0 mm 0.00 in0.0 mm
08:20 AM 80.9°F27.2°C 60.4°F15.8°C 50% Calm Calm 3.0 mph4.8 kmh 30.03 in1016.9 mb 0.00 in0.0 mm 0.00 in0.0 mm 0.00 in0.0 mm
08:15 AM 80.7°F27.1°C 60.3°F15.7°C 50% Calm Calm 4.0 mph6.4 kmh 30.03 in1016.9 mb 0.00 in0.0 mm 0.00 in0.0 mm 0.00 in0.0 mm
08:10 AM 80.8°F27.1°C 59.8°F15.4°C 49% 3.0 mph NW4.8 kmh NW 6.0 mph9.7 kmh 30.03 in1016.9 mb 0.00 in0.0 mm 0.00 in0.0 mm 0.00 in0.0 mm
08:05 AM 80.9°F27.2°C 60.4°F15.8°C 50% 2.0 mph NNW3.2 kmh NNW 5.0 mph8.0 kmh 30.03 in1016.9 mb 0.00 in0.0 mm 0.00 in0.0 mm 0.00 in0.0 mm
08:00 AM 80.9°F27.2°C 59.9°F15.5°C 49% 3.0 mph WNW4.8 kmh WNW 4.0 mph6.4 kmh 30.03 in1016.9 mb 0.00 in0.0 mm 0.00 in0.0 mm 0.00 in0.0 mm
07:55 AM 80.7°F27.1°C 60.8°F16.0°C 51% 2.0 mph NW3.2 kmh NW 5.0 mph8.0 kmh 30.03 in1016.9 mb 0.00 in0.0 mm 0.00 in0.0 mm 0.00 in0.0 mm
07:50 AM 80.4°F26.9°C 60.5°F15.8°C 51% Calm Calm 4.0 mph6.4 kmh 30.03 in1016.9 mb 0.00 in0.0 mm 0.00 in0.0 mm 0.00 in0.0 mm
07:45 AM 80.2°F26.8°C 60.4°F15.8°C 51% 3.0 mph W4.8 kmh W 5.0 mph8.0 kmh 30.03 in1016.9 mb 0.00 in0.0 mm 0.00 in0.0 mm 0.00 in0.0 mm
07:40 AM 80.0°F26.7°C 60.2°F15.7°C 51% 2.0 mph W3.2 kmh W 5.0 mph8.0 kmh 30.03 in1016.9 mb 0.00 in0.0 mm 0.00 in0.0 mm 0.00 in0.0 mm
07:35 AM 79.9°F26.6°C 59.5°F15.3°C 50% 5.0 mph W8.0 kmh W 7.0 mph11.3 kmh 30.02 in1016.6 mb 0.00 in0.0 mm 0.00 in0.0 mm 0.00 in0.0 mm
07:30 AM 79.9°F26.6°C 59.5°F15.3°C 50% 4.0 mph W6.4 kmh W 6.0 mph9.7 kmh 30.02 in1016.6 mb 0.00 in0.0 mm 0.00 in0.0 mm 0.00 in0.0 mm
07:25 AM 80.0°F26.7°C 60.2°F15.7°C 51% 2.0 mph W3.2 kmh W 7.0 mph11.3 kmh 30.02 in1016.6 mb 0.00 in0.0 mm 0.00 in0.0 mm 0.00 in0.0 mm
07:21 AM 79.9°F26.6°C 60.1°F15.6°C 51% 1.0 mph WSW1.6 kmh WSW 5.0 mph8.0 kmh 30.02 in1016.6 mb 0.00 in0.0 mm 0.00 in0.0 mm 0.00 in0.0 mm
07:15 AM 79.6°F26.4°C 59.8°F15.4°C 51% 3.0 mph WSW4.8 kmh WSW 5.0 mph8.0 kmh 30.02 in1016.6 mb 0.00 in0.0 mm 0.00 in0.0 mm 0.00 in0.0 mm
07:10 AM 79.1°F26.2°C 59.9°F15.5°C 52% 2.0 mph WSW3.2 kmh WSW 6.0 mph9.7 kmh 30.02 in1016.6 mb 0.00 in0.0 mm 0.00 in0.0 mm 0.00 in0.0 mm
07:05 AM 78.8°F26.0°C 59.6°F15.3°C 52% 4.0 mph WSW6.4 kmh WSW 6.0 mph9.7 kmh 30.02 in1016.6 mb 0.00 in0.0 mm 0.00 in0.0 mm 0.00 in0.0 mm
07:00 AM 78.5°F25.8°C 59.3°F15.2°C 52% 2.0 mph WSW3.2 kmh WSW 6.0 mph9.7 kmh 30.02 in1016.6 mb 0.00 in0.0 mm 0.00 in0.0 mm 0.00 in0.0 mm
06:55 AM 78.3°F25.7°C 59.7°F15.4°C 53% 2.0 mph WSW3.2 kmh WSW 5.0 mph8.0 kmh 30.02 in1016.6 mb 0.00 in0.0 mm 0.00 in0.0 mm 0.00 in0.0 mm
06:50 AM 78.1°F25.6°C 59.5°F15.3°C 53% 3.0 mph WSW4.8 kmh WSW 6.0 mph9.7 kmh 30.02 in1016.6 mb 0.00 in0.0 mm 0.00 in0.0 mm 0.00 in0.0 mm
06:45 AM 77.7°F25.4°C 59.1°F15.1°C 53% 4.0 mph WSW6.4 kmh WSW 5.0 mph8.0 kmh 30.02 in1016.6 mb 0.00 in0.0 mm 0.00 in0.0 mm 0.00 in0.0 mm
06:40 AM 77.4°F25.2°C 58.9°F14.9°C 53% 1.0 mph WSW1.6 kmh WSW 6.0 mph9.7 kmh 30.01 in1016.3 mb 0.00 in0.0 mm 0.00 in0.0 mm 0.00 in0.0 mm
06:35 AM 77.1°F25.1°C 59.1°F15.1°C 54% 3.0 mph WSW4.8 kmh WSW 6.0 mph9.7 kmh 30.01 in1016.3 mb 0.00 in0.0 mm 0.00 in0.0 mm 0.00 in0.0 mm
06:30 AM 77.0°F25.0°C 59.0°F15.0°C 54% 2.0 mph WSW3.2 kmh WSW 7.0 mph11.3 kmh 30.01 in1016.3 mb 0.00 in0.0 mm 0.00 in0.0 mm 0.00 in0.0 mm
06:25 AM 76.8°F24.9°C 58.3°F14.6°C 53% 1.0 mph WSW1.6 kmh WSW 7.0 mph11.3 kmh 30.01 in1016.3 mb 0.00 in0.0 mm 0.00 in0.0 mm 0.00 in0.0 mm
06:20 AM 76.7°F24.8°C 58.2°F14.6°C 53% 5.0 mph WSW8.0 kmh WSW 7.0 mph11.3 kmh 30.01 in1016.3 mb 0.00 in0.0 mm 0.00 in0.0 mm 0.00 in0.0 mm
06:15 AM 76.6°F24.8°C 58.1°F14.5°C 53% 4.0 mph WSW6.4 kmh WSW 7.0 mph11.3 kmh 30.01 in1016.3 mb 0.00 in0.0 mm 0.00 in0.0 mm 0.00 in0.0 mm
06:10 AM 76.7°F24.8°C 58.7°F14.8°C 54% 5.0 mph WSW8.0 kmh WSW 6.0 mph9.7 kmh 30.01 in1016.3 mb 0.00 in0.0 mm 0.00 in0.0 mm 0.00 in0.0 mm
06:05 AM 76.7°F24.8°C 58.7°F14.8°C 54% 2.0 mph WSW3.2 kmh WSW 7.0 mph11.3 kmh 30.01 in1016.3 mb 0.00 in0.0 mm 0.00 in0.0 mm 0.00 in0.0 mm
06:00 AM 76.3°F24.6°C 58.4°F14.7°C 54% 4.0 mph WSW6.4 kmh WSW 7.0 mph11.3 kmh 30.01 in1016.3 mb 0.00 in0.0 mm 0.00 in0.0 mm 0.00 in0.0 mm
05:55 AM 75.9°F24.4°C 58.5°F14.7°C 55% 3.0 mph WSW4.8 kmh WSW 6.0 mph9.7 kmh 30.01 in1016.3 mb 0.00 in0.0 mm 0.00 in0.0 mm 0.00 in0.0 mm
05:50 AM 75.5°F24.2°C 58.1°F14.5°C 55% 2.0 mph WSW3.2 kmh WSW 6.0 mph9.7 kmh 30.01 in1016.3 mb 0.00 in0.0 mm 0.00 in0.0 mm 0.00 in0.0 mm
05:45 AM 75.6°F24.2°C 58.2°F14.6°C 55% 2.0 mph WNW3.2 kmh WNW 6.0 mph9.7 kmh 30.01 in1016.3 mb 0.00 in0.0 mm 0.00 in0.0 mm 0.00 in0.0 mm
05:40 AM 75.6°F24.2°C 58.2°F14.6°C 55% 4.0 mph SW6.4 kmh SW 7.0 mph11.3 kmh 30.01 in1016.3 mb 0.00 in0.0 mm 0.00 in0.0 mm 0.00 in0.0 mm
05:35 AM 75.5°F24.2°C 57.6°F14.2°C 54% 3.0 mph WSW4.8 kmh WSW 8.0 mph12.9 kmh 30.01 in1016.3 mb 0.00 in0.0 mm 0.00 in0.0 mm 0.00 in0.0 mm
05:30 AM 75.3°F24.1°C 57.4°F14.1°C 54% 6.0 mph WSW9.7 kmh WSW 8.0 mph12.9 kmh 30.01 in1016.3 mb 0.00 in0.0 mm 0.00 in0.0 mm 0.00 in0.0 mm
05:25 AM 75.3°F24.1°C 57.4°F14.1°C 54% 7.0 mph WSW11.3 kmh WSW 8.0 mph12.9 kmh 30.01 in1016.3 mb 0.00 in0.0 mm 0.00 in0.0 mm 0.00 in0.0 mm
05:20 AM 75.4°F24.1°C 57.5°F14.2°C 54% 6.0 mph WSW9.7 kmh WSW 7.0 mph11.3 kmh 30.01 in1016.3 mb 0.00 in0.0 mm 0.00 in0.0 mm 0.00 in0.0 mm
05:15 AM 75.5°F24.2°C 57.6°F14.2°C 54% 3.0 mph W4.8 kmh W 7.0 mph11.3 kmh 30.01 in1016.3 mb 0.00 in0.0 mm 0.00 in0.0 mm 0.00 in0.0 mm
05:10 AM 75.6°F24.2°C 57.7°F14.3°C 54% 5.0 mph WSW8.0 kmh WSW 6.0 mph9.7 kmh 30.00 in1015.9 mb 0.00 in0.0 mm 0.00 in0.0 mm 0.00 in0.0 mm
05:05 AM 75.6°F24.2°C 57.7°F14.3°C 54% 4.0 mph WSW6.4 kmh WSW 5.0 mph8.0 kmh 30.00 in1015.9 mb 0.00 in0.0 mm 0.00 in0.0 mm 0.00 in0.0 mm
05:00 AM 75.6°F24.2°C 57.7°F14.3°C 54% 4.0 mph WSW6.4 kmh WSW 5.0 mph8.0 kmh 30.00 in1015.9 mb 0.00 in0.0 mm 0.00 in0.0 mm 0.00 in0.0 mm
04:55 AM 75.6°F24.2°C 57.7°F14.3°C 54% 5.0 mph WSW8.0 kmh WSW 5.0 mph8.0 kmh 30.00 in1015.9 mb 0.00 in0.0 mm 0.00 in0.0 mm 0.00 in0.0 mm
04:50 AM 75.7°F24.3°C 57.8°F14.3°C 54% 2.0 mph WSW3.2 kmh WSW 7.0 mph11.3 kmh 30.00 in1015.9 mb 0.00 in0.0 mm 0.00 in0.0 mm 0.00 in0.0 mm
04:45 AM 75.8°F24.3°C 57.9°F14.4°C 54% 5.0 mph WSW8.0 kmh WSW 7.0 mph11.3 kmh 29.99 in1015.6 mb 0.00 in0.0 mm 0.00 in0.0 mm 0.00 in0.0 mm
04:40 AM 75.7°F24.3°C 58.3°F14.6°C 55% 6.0 mph WSW9.7 kmh WSW 9.0 mph14.5 kmh 29.99 in1015.6 mb 0.00 in0.0 mm 0.00 in0.0 mm 0.00 in0.0 mm
04:35 AM 75.6°F24.2°C 58.2°F14.6°C 55% 4.0 mph WSW6.4 kmh WSW 8.0 mph12.9 kmh 29.99 in1015.6 mb 0.00 in0.0 mm 0.00 in0.0 mm 0.00 in0.0 mm
04:30 AM 75.3°F24.1°C 58.4°F14.7°C 56% 4.0 mph WSW6.4 kmh WSW 7.0 mph11.3 kmh 29.99 in1015.6 mb 0.00 in0.0 mm 0.00 in0.0 mm 0.00 in0.0 mm
04:25 AM 74.9°F23.8°C 58.6°F14.8°C 57% 5.0 mph WSW8.0 kmh WSW 7.0 mph11.3 kmh 29.99 in1015.6 mb 0.00 in0.0 mm 0.00 in0.0 mm 0.00 in0.0 mm
04:20 AM 74.8°F23.8°C 58.5°F14.7°C 57% 3.0 mph WSW4.8 kmh WSW 6.0 mph9.7 kmh 29.99 in1015.6 mb 0.00 in0.0 mm 0.00 in0.0 mm 0.00 in0.0 mm
04:15 AM 74.7°F23.7°C 58.4°F14.7°C 57% 1.0 mph WSW1.6 kmh WSW 8.0 mph12.9 kmh 29.99 in1015.6 mb 0.00 in0.0 mm 0.00 in0.0 mm 0.00 in0.0 mm
04:10 AM 74.6°F23.7°C 58.3°F14.6°C 57% 5.0 mph WSW8.0 kmh WSW 6.0 mph9.7 kmh 30.00 in1015.9 mb 0.00 in0.0 mm 0.00 in0.0 mm 0.00 in0.0 mm
04:05 AM 74.3°F23.5°C 58.0°F14.4°C 57% 4.0 mph WSW6.4 kmh WSW 6.0 mph9.7 kmh 29.99 in1015.6 mb 0.00 in0.0 mm 0.00 in0.0 mm 0.00 in0.0 mm
04:00 AM 74.1°F23.4°C 58.3°F14.6°C 58% 3.0 mph WSW4.8 kmh WSW 7.0 mph11.3 kmh 30.00 in1015.9 mb 0.00 in0.0 mm 0.00 in0.0 mm 0.00 in0.0 mm
03:55 AM 74.1°F23.4°C 58.3°F14.6°C 58% 2.0 mph SW3.2 kmh SW 7.0 mph11.3 kmh 30.00 in1015.9 mb 0.00 in0.0 mm 0.00 in0.0 mm 0.00 in0.0 mm
03:50 AM 74.2°F23.4°C 58.9°F14.9°C 59% 5.0 mph W8.0 kmh W 5.0 mph8.0 kmh 30.00 in1015.9 mb 0.00 in0.0 mm 0.00 in0.0 mm 0.00 in0.0 mm
03:45 AM 74.4°F23.6°C 59.1°F15.1°C 59% 3.0 mph W4.8 kmh W 6.0 mph9.7 kmh 29.99 in1015.6 mb 0.00 in0.0 mm 0.00 in0.0 mm 0.00 in0.0 mm
03:40 AM 74.6°F23.7°C 59.7°F15.4°C 60% 2.0 mph WSW3.2 kmh WSW 6.0 mph9.7 kmh 29.99 in1015.6 mb 0.00 in0.0 mm 0.00 in0.0 mm 0.00 in0.0 mm
03:35 AM 74.7°F23.7°C 60.7°F15.9°C 62% 2.0 mph W3.2 kmh W 7.0 mph11.3 kmh 29.99 in1015.6 mb 0.00 in0.0 mm 0.00 in0.0 mm 0.00 in0.0 mm
03:30 AM 74.8°F23.8°C 62.2°F16.8°C 65% 1.0 mph W1.6 kmh W 7.0 mph11.3 kmh 29.99 in1015.6 mb 0.00 in0.0 mm 0.00 in0.0 mm 0.00 in0.0 mm
03:25 AM 74.9°F23.8°C 62.7°F17.1°C 66% 3.0 mph WNW4.8 kmh WNW 6.0 mph9.7 kmh 30.00 in1015.9 mb 0.00 in0.0 mm 0.00 in0.0 mm 0.00 in0.0 mm
03:20 AM 74.9°F23.8°C 62.7°F17.1°C 66% 1.0 mph WSW1.6 kmh WSW 7.0 mph11.3 kmh 29.99 in1015.6 mb 0.00 in0.0 mm 0.00 in0.0 mm 0.00 in0.0 mm
03:15 AM 74.9°F23.8°C 61.8°F16.6°C 64% 4.0 mph WSW6.4 kmh WSW 7.0 mph11.3 kmh 29.99 in1015.6 mb 0.00 in0.0 mm 0.00 in0.0 mm 0.00 in0.0 mm
03:10 AM 74.8°F23.8°C 61.7°F16.5°C 64% 6.0 mph WSW9.7 kmh WSW 8.0 mph12.9 kmh 29.99 in1015.6 mb 0.00 in0.0 mm 0.00 in0.0 mm 0.00 in0.0 mm
03:05 AM 74.6°F23.7°C 62.0°F16.7°C 65% 6.0 mph WSW9.7 kmh WSW 7.0 mph11.3 kmh 29.99 in1015.6 mb 0.00 in0.0 mm 0.00 in0.0 mm 0.00 in0.0 mm
03:00 AM 74.3°F23.5°C 63.0°F17.2°C 68% 6.0 mph WSW9.7 kmh WSW 7.0 mph11.3 kmh 29.99 in1015.6 mb 0.00 in0.0 mm 0.00 in0.0 mm 0.00 in0.0 mm
02:55 AM 74.3°F23.5°C 63.4°F17.4°C 69% 6.0 mph WSW9.7 kmh WSW 8.0 mph12.9 kmh 29.99 in1015.6 mb 0.00 in0.0 mm 0.00 in0.0 mm 0.00 in0.0 mm
02:50 AM 74.3°F23.5°C 64.2°F17.9°C 71% 2.0 mph WSW3.2 kmh WSW 8.0 mph12.9 kmh 30.00 in1015.9 mb 0.00 in0.0 mm 0.00 in0.0 mm 0.00 in0.0 mm
02:45 AM 74.3°F23.5°C 64.2°F17.9°C 71% 5.0 mph WSW8.0 kmh WSW 7.0 mph11.3 kmh 30.00 in1015.9 mb 0.00 in0.0 mm 0.00 in0.0 mm 0.00 in0.0 mm
02:40 AM 74.0°F23.3°C 63.5°F17.5°C 70% 4.0 mph WSW6.4 kmh WSW 8.0 mph12.9 kmh 30.00 in1015.9 mb 0.00 in0.0 mm 0.00 in0.0 mm 0.00 in0.0 mm
02:35 AM 73.8°F23.2°C 63.3°F17.4°C 70% 6.0 mph WSW9.7 kmh WSW 8.0 mph12.9 kmh 29.99 in1015.6 mb 0.00 in0.0 mm 0.00 in0.0 mm 0.00 in0.0 mm
02:30 AM 74.1°F23.4°C 64.8°F18.2°C 73% 3.0 mph WSW4.8 kmh WSW 6.0 mph9.7 kmh 30.00 in1015.9 mb 0.00 in0.0 mm 0.00 in0.0 mm 0.00 in0.0 mm
02:25 AM 74.3°F23.5°C 65.8°F18.8°C 75% 6.0 mph W9.7 kmh W 7.0 mph11.3 kmh 30.00 in1015.9 mb 0.00 in0.0 mm 0.00 in0.0 mm 0.00 in0.0 mm
02:20 AM 74.3°F23.5°C 65.8°F18.8°C 75% 3.0 mph WNW4.8 kmh WNW 6.0 mph9.7 kmh 30.00 in1015.9 mb 0.00 in0.0 mm 0.00 in0.0 mm 0.00 in0.0 mm
02:15 AM 74.2°F23.4°C 65.3°F18.5°C 74% 6.0 mph W9.7 kmh W 7.0 mph11.3 kmh 30.00 in1015.9 mb 0.00 in0.0 mm 0.00 in0.0 mm 0.00 in0.0 mm
02:10 AM 74.1°F23.4°C 64.4°F18.0°C 72% 3.0 mph WNW4.8 kmh WNW 8.0 mph12.9 kmh 30.00 in1015.9 mb 0.00 in0.0 mm 0.00 in0.0 mm 0.00 in0.0 mm
02:05 AM 74.2°F23.4°C 64.1°F17.8°C 71% 4.0 mph W6.4 kmh W 6.0 mph9.7 kmh 30.00 in1015.9 mb 0.00 in0.0 mm 0.00 in0.0 mm 0.00 in0.0 mm
02:00 AM 74.1°F23.4°C 63.6°F17.6°C 70% 3.0 mph W4.8 kmh W 7.0 mph11.3 kmh 30.00 in1015.9 mb 0.00 in0.0 mm 0.00 in0.0 mm 0.00 in0.0 mm
01:55 AM 74.1°F23.4°C 64.0°F17.8°C 71% 3.0 mph W4.8 kmh W 8.0 mph12.9 kmh 30.00 in1015.9 mb 0.00 in0.0 mm 0.00 in0.0 mm 0.00 in0.0 mm
01:50 AM 74.3°F23.5°C 64.6°F18.1°C 72% 4.0 mph W6.4 kmh W 7.0 mph11.3 kmh 30.00 in1015.9 mb 0.00 in0.0 mm 0.00 in0.0 mm 0.00 in0.0 mm
01:45 AM 74.6°F23.7°C 65.7°F18.7°C 74% 2.0 mph WSW3.2 kmh WSW 7.0 mph11.3 kmh 30.00 in1015.9 mb 0.00 in0.0 mm 0.00 in0.0 mm 0.00 in0.0 mm
01:40 AM 74.6°F23.7°C 66.1°F18.9°C 75% 4.0 mph W6.4 kmh W 7.0 mph11.3 kmh 30.00 in1015.9 mb 0.00 in0.0 mm 0.00 in0.0 mm 0.00 in0.0 mm
01:35 AM 74.6°F23.7°C 66.1°F18.9°C 75% 3.0 mph W4.8 kmh W 5.0 mph8.0 kmh 30.00 in1015.9 mb 0.00 in0.0 mm 0.00 in0.0 mm 0.00 in0.0 mm
01:30 AM 74.6°F23.7°C 66.1°F18.9°C 75% 1.0 mph WNW1.6 kmh WNW 6.0 mph9.7 kmh 30.00 in1015.9 mb 0.00 in0.0 mm 0.00 in0.0 mm 0.00 in0.0 mm
01:25 AM 74.6°F23.7°C 65.3°F18.5°C 73% 3.0 mph W4.8 kmh W 5.0 mph8.0 kmh 30.00 in1015.9 mb 0.00 in0.0 mm 0.00 in0.0 mm 0.00 in0.0 mm
01:20 AM 74.6°F23.7°C 65.7°F18.7°C 74% 2.0 mph W3.2 kmh W 4.0 mph6.4 kmh 30.00 in1015.9 mb 0.00 in0.0 mm 0.00 in0.0 mm 0.00 in0.0 mm
01:15 AM 74.9°F23.8°C 66.4°F19.1°C 75% 1.0 mph W1.6 kmh W 5.0 mph8.0 kmh 30.00 in1015.9 mb 0.00 in0.0 mm 0.00 in0.0 mm 0.00 in0.0 mm
01:10 AM 75.1°F23.9°C 66.6°F19.2°C 75% Calm Calm 5.0 mph8.0 kmh 30.00 in1015.9 mb 0.00 in0.0 mm 0.00 in0.0 mm 0.00 in0.0 mm
01:05 AM 75.3°F24.1°C 66.8°F19.3°C 75% 1.0 mph W1.6 kmh W 4.0 mph6.4 kmh 30.00 in1015.9 mb 0.00 in0.0 mm 0.00 in0.0 mm 0.00 in0.0 mm
01:00 AM 75.3°F24.1°C 66.4°F19.1°C 74% 2.0 mph W3.2 kmh W 3.0 mph4.8 kmh 30.01 in1016.3 mb 0.00 in0.0 mm 0.00 in0.0 mm 0.00 in0.0 mm
12:55 AM 75.5°F24.2°C 66.6°F19.2°C 74% 3.0 mph W4.8 kmh W 3.0 mph4.8 kmh 30.01 in1016.3 mb 0.00 in0.0 mm 0.00 in0.0 mm 0.00 in0.0 mm
12:50 AM 75.6°F24.2°C 66.3°F19.1°C 73% Calm Calm -- 30.01 in1016.3 mb 0.00 in0.0 mm 0.00 in0.0 mm 0.00 in0.0 mm
12:45 AM 75.8°F24.3°C 66.1°F18.9°C 72% Calm Calm -- 30.01 in1016.3 mb 0.00 in0.0 mm 0.00 in0.0 mm 0.00 in0.0 mm
12:40 AM 76.0°F24.4°C 66.3°F19.1°C 72% Calm Calm -- 30.01 in1016.3 mb 0.00 in0.0 mm 0.00 in0.0 mm 0.00 in0.0 mm
12:35 AM 76.2°F24.6°C 65.6°F18.7°C 70% Calm Calm -- 30.01 in1016.3 mb 0.00 in0.0 mm 0.00 in0.0 mm 0.00 in0.0 mm
12:30 AM 76.2°F24.6°C 64.8°F18.2°C 68% Calm Calm -- 30.01 in1016.3 mb 0.00 in0.0 mm 0.00 in0.0 mm 0.00 in0.0 mm
12:25 AM 76.4°F24.7°C 64.1°F17.8°C 66% Calm Calm -- 30.02 in1016.6 mb 0.00 in0.0 mm 0.00 in0.0 mm 0.00 in0.0 mm
12:20 AM 76.6°F24.8°C 63.9°F17.7°C 65% Calm Calm -- 30.02 in1016.6 mb 0.00 in0.0 mm 0.00 in0.0 mm 0.00 in0.0 mm
12:15 AM 76.7°F24.8°C 63.5°F17.5°C 64% Calm Calm -- 30.02 in1016.6 mb 0.00 in0.0 mm 0.00 in0.0 mm 0.00 in0.0 mm
12:10 AM 76.8°F24.9°C 63.6°F17.6°C 64% Calm Calm -- 30.02 in1016.6 mb 0.00 in0.0 mm 0.00 in0.0 mm 0.00 in0.0 mm
12:05 AM 76.8°F24.9°C 62.7°F17.1°C 62% Calm Calm -- 30.02 in1016.6 mb 0.00 in0.0 mm 0.00 in0.0 mm 0.00 in0.0 mm
12:00 AM 76.9°F24.9°C 62.4°F16.9°C 61% Calm Calm -- 30.02 in1016.6 mb 0.00 in0.0 mm 0.00 in0.0 mm 0.00 in0.0 mm